createdAt,value
2022-11-01T00:00:29.056Z,101034.32
2022-11-01T00:01:32.378Z,101036.17
2022-11-01T00:02:36.255Z,101032.63
2022-11-01T00:03:39.289Z,101031.78
2022-11-01T00:04:42.130Z,101033.78
2022-11-01T00:05:45.577Z,101030.42
2022-11-01T00:06:49.480Z,101029.87
2022-11-01T00:07:53.627Z,101030.88
2022-11-01T00:08:56.791Z,101032.92
2022-11-01T00:09:59.732Z,101029.52
2022-11-01T00:11:04.873Z,101030.52
2022-11-01T00:12:07.835Z,101031.56
2022-11-01T00:13:10.686Z,101041.66
2022-11-01T00:14:15.351Z,101029.17
2022-11-01T00:15:18.396Z,101034.72
2022-11-01T00:16:22.335Z,101035.05
2022-11-01T00:17:25.195Z,101026.60
2022-11-01T00:18:28.026Z,101026.60
2022-11-01T00:19:31.044Z,101021.36
2022-11-01T00:20:34.115Z,101025.06
2022-11-01T00:21:37.521Z,101019.66
2022-11-01T00:22:40.480Z,101029.30
2022-11-01T00:23:44.177Z,101029.30
2022-11-01T00:24:51.438Z,101023.91
2022-11-01T00:26:00.263Z,101024.75
2022-11-01T00:27:03.169Z,101024.75
2022-11-01T00:28:06.194Z,101028.30
2022-11-01T00:29:09.154Z,101027.45
2022-11-01T00:30:12.618Z,101023.06
2022-11-01T00:31:17.184Z,101022.20
2022-11-01T00:32:20.131Z,101025.91
2022-11-01T00:33:23.709Z,101025.91
2022-11-01T00:34:26.540Z,101027.61
2022-11-01T00:35:30.786Z,101027.75
2022-11-01T00:36:35.036Z,101033.34
2022-11-01T00:37:39.609Z,101044.98
2022-11-01T00:38:42.556Z,101035.19
2022-11-01T00:39:45.454Z,101036.19
2022-11-01T00:40:48.444Z,101035.34
2022-11-01T00:41:52.660Z,101033.64
2022-11-01T00:42:55.837Z,101030.95
2022-11-01T00:43:58.794Z,101032.80
2022-11-01T00:45:01.756Z,101028.39
2022-11-01T00:46:04.897Z,101029.44
2022-11-01T00:47:07.895Z,101034.83
2022-11-01T00:48:11.723Z,101025.70
2022-11-01T00:49:14.628Z,101037.34
2022-11-01T00:50:18.294Z,101031.95
2022-11-01T00:51:21.396Z,101033.80
2022-11-01T00:52:24.252Z,101031.95
2022-11-01T00:53:27.315Z,101029.44
2022-11-01T00:54:30.218Z,101037.52
2022-11-01T00:55:33.561Z,101037.67
2022-11-01T00:56:36.792Z,101035.28
2022-11-01T00:57:39.872Z,101035.28
2022-11-01T00:58:43.186Z,101030.92
2022-11-01T00:59:46.033Z,101026.67
2022-11-01T01:00:49.104Z,101030.55
2022-11-01T01:01:52.356Z,101024.47
2022-11-01T01:02:55.537Z,101029.01
2022-11-01T01:03:58.624Z,101019.22
2022-11-01T01:05:01.458Z,101022.92
2022-11-01T01:06:04.646Z,101014.16
2022-11-01T01:07:07.713Z,101022.25
2022-11-01T01:08:10.660Z,101021.41
2022-11-01T01:09:13.660Z,101019.70
2022-11-01T01:10:17.249Z,101020.41
2022-11-01T01:11:20.228Z,101019.55
2022-11-01T01:12:23.571Z,101022.07
2022-11-01T01:13:26.771Z,101023.95
2022-11-01T01:14:32.326Z,101034.73
2022-11-01T01:15:34.249Z,101026.64
2022-11-01T01:16:37.300Z,101035.55
2022-11-01T01:17:40.458Z,101032.04
2022-11-01T01:18:43.451Z,101026.64
2022-11-01T01:19:46.288Z,101034.73
2022-11-01T01:20:49.129Z,101034.73
2022-11-01T01:21:51.949Z,101029.34
2022-11-01T01:22:55.191Z,101026.64
2022-11-01T01:23:58.226Z,101023.10
2022-11-01T01:25:01.189Z,101027.64
2022-11-01T01:26:08.916Z,101027.64
2022-11-01T01:27:14.349Z,101030.34
2022-11-01T01:28:17.319Z,101022.41
2022-11-01T01:29:20.365Z,101025.95
2022-11-01T01:30:23.559Z,101020.70
2022-11-01T01:31:26.690Z,101030.49
2022-11-01T01:32:29.505Z,101024.25
2022-11-01T01:33:32.540Z,101025.25
2022-11-01T01:34:35.506Z,101024.59
2022-11-01T01:35:38.872Z,101028.28
2022-11-01T01:36:41.975Z,101025.73
2022-11-01T01:37:45.006Z,101025.04
2022-11-01T01:38:49.697Z,101027.06
2022-11-01T01:39:52.865Z,101027.22
2022-11-01T01:40:58.053Z,101030.91
2022-11-01T01:42:16.834Z,101031.77
2022-11-01T01:43:19.775Z,101026.37
2022-11-01T01:44:52.261Z,101025.52
2022-11-01T01:45:55.242Z,101025.52
2022-11-01T01:46:58.070Z,101031.09
2022-11-01T01:48:05.952Z,101028.55
2022-11-01T01:49:08.826Z,101037.63
2022-11-01T01:50:21.661Z,101026.00
2022-11-01T01:51:27.628Z,101032.24
2022-11-01T01:52:33.555Z,101020.77
2022-11-01T01:53:43.238Z,101019.09
2022-11-01T01:54:47.331Z,101019.94
2022-11-01T01:56:03.079Z,101015.37
2022-11-01T01:57:06.108Z,101016.22
2022-11-01T01:58:12.154Z,101010.83
2022-11-01T01:59:15.312Z,101024.30
2022-11-01T02:00:18.993Z,101025.34
2022-11-01T02:01:22.133Z,101030.73
2022-11-01T02:02:26.058Z,101028.18
2022-11-01T02:03:34.463Z,101026.48
2022-11-01T02:04:43.990Z,101025.78
2022-11-01T02:05:53.756Z,101030.33
2022-11-01T02:06:58.461Z,101034.20
2022-11-01T02:08:02.649Z,101026.27
2022-11-01T02:09:08.285Z,101029.11
2022-11-01T02:10:14.201Z,101030.14
2022-11-01T02:11:18.447Z,101030.98
2022-11-01T02:12:24.790Z,101038.89
2022-11-01T02:13:29.177Z,101042.44
2022-11-01T02:14:32.468Z,101038.05
2022-11-01T02:15:38.853Z,101043.77
2022-11-01T02:16:51.487Z,101041.22
2022-11-01T02:18:13.089Z,101041.36
2022-11-01T02:19:55.635Z,101037.16
2022-11-01T02:21:10.898Z,101029.22
2022-11-01T02:22:37.421Z,101041.17
2022-11-01T02:23:55.929Z,101038.62
2022-11-01T02:25:28.155Z,101034.56
2022-11-01T02:26:52.715Z,101042.94
2022-11-01T02:28:19.297Z,101040.39
2022-11-01T02:29:58.988Z,101038.72
2022-11-01T02:31:20.360Z,101039.87
2022-11-01T02:32:43.180Z,101040.19
2022-11-01T02:35:23.470Z,101046.48
2022-11-01T02:36:51.149Z,101046.48
2022-11-01T02:38:09.455Z,101044.27
2022-11-01T02:39:18.889Z,101045.44
2022-11-01T02:40:31.523Z,101056.50
2022-11-01T02:41:37.865Z,101042.36
2022-11-01T02:42:43.912Z,101037.13
2022-11-01T02:43:50.464Z,101048.89
2022-11-01T02:44:56.963Z,101038.27
2022-11-01T02:46:04.687Z,101043.66
2022-11-01T02:47:09.679Z,101041.80
2022-11-01T02:48:12.530Z,101044.50
2022-11-01T02:49:19.377Z,101044.64
2022-11-01T02:50:24.982Z,101045.49
2022-11-01T02:51:29.548Z,101042.12
2022-11-01T02:52:35.387Z,101050.20
2022-11-01T02:53:38.387Z,101046.67
2022-11-01T02:54:47.270Z,101051.20
2022-11-01T02:55:53.868Z,101043.13
2022-11-01T02:57:00.264Z,101045.81
2022-11-01T02:58:24.816Z,101046.67
2022-11-01T02:59:29.081Z,101042.12
2022-11-01T03:00:35.312Z,101042.12
2022-11-01T03:01:41.646Z,101042.12
2022-11-01T03:02:45.052Z,101040.11
2022-11-01T03:03:50.586Z,101043.66
2022-11-01T03:04:53.531Z,101032.73
2022-11-01T03:06:09.065Z,101040.67
2022-11-01T03:07:13.629Z,101036.80
2022-11-01T03:08:19.661Z,101038.36
2022-11-01T03:09:22.741Z,101040.91
2022-11-01T03:10:35.261Z,101039.73
2022-11-01T03:11:57.089Z,101044.83
2022-11-01T03:13:18.487Z,101040.25
2022-11-01T03:14:33.932Z,101043.66
2022-11-01T03:15:40.477Z,101045.34
2022-11-01T03:16:53.039Z,101052.44
2022-11-01T03:18:05.265Z,101046.87
2022-11-01T03:19:37.469Z,101043.03
2022-11-01T03:20:49.576Z,101047.25
2022-11-01T03:22:05.473Z,101046.95
2022-11-01T03:23:10.013Z,101043.08
2022-11-01T03:24:16.577Z,101039.39
2022-11-01T03:25:42.492Z,101040.95
2022-11-01T03:26:49.102Z,101040.62
2022-11-01T03:27:53.563Z,101036.92
2022-11-01T03:29:03.085Z,101042.31
2022-11-01T03:30:09.767Z,101038.47
2022-11-01T03:31:22.499Z,101042.69
2022-11-01T03:32:28.901Z,101044.23
2022-11-01T03:33:34.711Z,101046.75
2022-11-01T03:34:40.102Z,101052.00
2022-11-01T03:35:46.642Z,101045.61
2022-11-01T03:38:06.943Z,101040.66
2022-11-01T03:39:13.623Z,101047.16
2022-11-01T03:40:18.216Z,101044.28
2022-11-01T03:41:24.664Z,101053.22
2022-11-01T03:42:27.735Z,101049.52
2022-11-01T03:43:33.253Z,101051.22
2022-11-01T03:44:42.418Z,101056.61
2022-11-01T03:45:46.450Z,101051.22
2022-11-01T03:46:50.761Z,101052.08
2022-11-01T03:47:53.632Z,101052.08
2022-11-01T03:48:56.673Z,101058.13
2022-11-01T03:50:18.029Z,101059.83
2022-11-01T03:51:20.938Z,101050.89
2022-11-01T03:52:24.063Z,101055.44
2022-11-01T03:53:26.903Z,101053.92
2022-11-01T03:54:30.339Z,101047.68
2022-11-01T03:55:33.315Z,101054.06
2022-11-01T03:56:39.255Z,101052.22
2022-11-01T03:57:42.238Z,101048.67
2022-11-01T03:58:45.685Z,101049.67
2022-11-01T03:59:48.523Z,101053.37
2022-11-01T04:00:51.587Z,101055.06
2022-11-01T04:01:54.959Z,101050.67
2022-11-01T04:02:58.625Z,101059.61
2022-11-01T04:04:01.783Z,101058.76
2022-11-01T04:05:05.597Z,101058.61
2022-11-01T04:06:09.399Z,101060.45
2022-11-01T04:07:12.495Z,101058.46
2022-11-01T04:08:15.344Z,101063.00
2022-11-01T04:09:18.375Z,101063.85
2022-11-01T04:10:22.900Z,101066.55
2022-11-01T04:11:26.052Z,101069.24
2022-11-01T04:12:28.922Z,101067.55
2022-11-01T04:13:31.911Z,101071.23
2022-11-01T04:14:53.597Z,101072.94
2022-11-01T04:16:16.506Z,101070.23
2022-11-01T04:17:38.119Z,101072.94
2022-11-01T04:18:59.313Z,101068.72
2022-11-01T04:20:20.596Z,101077.80
2022-11-01T04:21:25.887Z,101067.50
2022-11-01T04:22:28.919Z,101075.03
2022-11-01T04:23:32.490Z,101071.81
2022-11-01T04:24:35.548Z,101069.41
2022-11-01T04:25:38.587Z,101071.58
2022-11-01T04:26:41.392Z,101070.87
2022-11-01T04:27:44.310Z,101067.52
2022-11-01T04:28:57.239Z,101064.97
2022-11-01T04:30:00.538Z,101072.20
2022-11-01T04:31:04.102Z,101068.80
2022-11-01T04:32:07.033Z,101070.83
2022-11-01T04:33:09.988Z,101072.52
2022-11-01T04:34:13.095Z,101077.06
2022-11-01T04:35:16.378Z,101071.82
2022-11-01T04:36:19.277Z,101078.05
2022-11-01T04:37:22.204Z,101084.97
2022-11-01T04:38:25.175Z,101076.22
2022-11-01T04:39:28.092Z,101078.77
2022-11-01T04:40:32.090Z,101078.77
2022-11-01T04:41:34.930Z,101073.20
2022-11-01T04:42:37.845Z,101074.89
2022-11-01T04:43:40.841Z,101077.44
2022-11-01T04:44:45.558Z,101079.14
2022-11-01T04:45:57.345Z,101076.27
2022-11-01T04:47:00.295Z,101073.43
2022-11-01T04:48:06.127Z,101081.52
2022-11-01T04:49:09.089Z,101078.97
2022-11-01T04:50:12.754Z,101090.77
2022-11-01T04:51:15.587Z,101073.90
2022-11-01T04:52:18.635Z,101083.12
2022-11-01T04:53:21.677Z,101079.58
2022-11-01T04:54:24.778Z,101086.98
2022-11-01T04:55:28.327Z,101083.45
2022-11-01T04:56:31.174Z,101085.29
2022-11-01T04:57:42.088Z,101086.98
2022-11-01T04:58:46.342Z,101084.30
2022-11-01T04:59:53.344Z,101091.38
2022-11-01T05:00:56.275Z,101090.21
2022-11-01T05:01:59.291Z,101090.91
2022-11-01T05:03:07.242Z,101098.00
2022-11-01T05:04:10.316Z,101095.98
2022-11-01T05:05:13.842Z,101093.14
2022-11-01T05:06:16.680Z,101097.39
2022-11-01T05:07:19.609Z,101093.52
2022-11-01T05:08:22.627Z,101096.91
2022-11-01T05:09:25.569Z,101096.73
2022-11-01T05:10:28.590Z,101096.73
2022-11-01T05:11:31.436Z,101094.75
2022-11-01T05:12:34.563Z,101099.14
2022-11-01T05:13:37.510Z,101096.30
2022-11-01T05:14:40.344Z,101099.84
2022-11-01T05:15:53.540Z,101106.05
2022-11-01T05:16:48.293Z,101099.66
2022-11-01T05:17:51.526Z,101097.97
2022-11-01T05:18:54.366Z,101102.53
2022-11-01T05:19:57.225Z,101093.42
2022-11-01T05:21:00.350Z,101094.27
2022-11-01T05:22:03.919Z,101096.97
2022-11-01T05:23:07.030Z,101110.30
2022-11-01T05:24:09.933Z,101106.61
2022-11-01T05:25:12.917Z,101103.91
2022-11-01T05:26:16.446Z,101104.77
2022-11-01T05:27:19.407Z,101107.45
2022-11-01T05:28:23.174Z,101108.30
2022-11-01T05:29:32.791Z,101109.16
2022-11-01T05:30:31.896Z,101114.55
2022-11-01T05:31:34.826Z,101109.16
2022-11-01T05:32:37.911Z,101112.84
2022-11-01T05:33:40.985Z,101120.75
2022-11-01T05:34:44.086Z,101123.30
2022-11-01T05:35:46.923Z,101117.77
2022-11-01T05:36:49.786Z,101122.16
2022-11-01T05:37:52.628Z,101121.16
2022-11-01T05:38:56.625Z,101130.92
2022-11-01T05:39:59.728Z,101131.62
2022-11-01T05:41:03.584Z,101127.93
2022-11-01T05:42:07.144Z,101132.33
2022-11-01T05:43:10.208Z,101129.45
2022-11-01T05:44:13.373Z,101129.30
2022-11-01T05:45:16.366Z,101121.06
2022-11-01T05:46:19.564Z,101124.61
2022-11-01T05:47:22.478Z,101125.28
2022-11-01T05:48:25.487Z,101123.44
2022-11-01T05:49:28.440Z,101126.98
2022-11-01T05:50:31.619Z,101125.98
2022-11-01T05:51:37.728Z,101130.38
2022-11-01T05:52:41.197Z,101130.20
2022-11-01T05:53:44.297Z,101131.05
2022-11-01T05:54:47.389Z,101125.51
2022-11-01T05:55:50.516Z,101126.36
2022-11-01T05:56:53.587Z,101126.20
2022-11-01T05:57:59.330Z,101128.72
2022-11-01T05:59:02.255Z,101121.48
2022-11-01T06:00:05.907Z,101126.73
2022-11-01T06:01:10.745Z,101122.19
2022-11-01T06:02:13.873Z,101118.64
2022-11-01T06:03:16.865Z,101127.58
2022-11-01T06:04:22.257Z,101126.88
2022-11-01T06:05:25.918Z,101132.45
2022-11-01T06:06:29.374Z,101123.52
2022-11-01T06:07:35.122Z,101128.72
2022-11-01T06:08:38.057Z,101127.73
2022-11-01T06:09:40.980Z,101131.13
2022-11-01T06:10:44.169Z,101122.89
2022-11-01T06:11:47.146Z,101127.09
2022-11-01T06:12:50.058Z,101125.25
2022-11-01T06:13:59.399Z,101127.09
2022-11-01T06:15:02.280Z,101120.01
2022-11-01T06:16:06.514Z,101128.09
2022-11-01T06:17:11.331Z,101131.83
2022-11-01T06:18:14.246Z,101126.44
2022-11-01T06:19:17.127Z,101135.52
2022-11-01T06:20:19.968Z,101133.82
2022-11-01T06:21:26.190Z,101127.58
2022-11-01T06:22:27.840Z,101133.97
2022-11-01T06:23:30.705Z,101130.42
2022-11-01T06:24:33.952Z,101132.13
2022-11-01T06:25:37.291Z,101135.67
2022-11-01T06:26:40.245Z,101139.22
2022-11-01T06:27:43.158Z,101126.73
2022-11-01T06:28:46.743Z,101130.28
2022-11-01T06:29:50.049Z,101131.13
2022-11-01T06:30:52.945Z,101136.38
2022-11-01T06:31:56.052Z,101124.73
2022-11-01T06:33:00.879Z,101130.28
2022-11-01T06:34:04.359Z,101131.27
2022-11-01T06:35:08.170Z,101127.06
2022-11-01T06:36:11.755Z,101130.75
2022-11-01T06:37:14.675Z,101123.52
2022-11-01T06:38:17.877Z,101119.97
2022-11-01T06:39:21.008Z,101120.81
2022-11-01T06:40:23.902Z,101114.58
2022-11-01T06:41:26.932Z,101110.03
2022-11-01T06:42:29.848Z,101118.97
2022-11-01T06:43:32.686Z,101116.94
2022-11-01T06:44:35.554Z,101118.64
2022-11-01T06:45:38.631Z,101113.95
2022-11-01T06:46:41.597Z,101119.01
2022-11-01T06:47:47.740Z,101111.62
2022-11-01T06:48:50.705Z,101108.77
2022-11-01T06:49:53.774Z,101112.98
2022-11-01T06:50:56.825Z,101111.98
2022-11-01T06:51:59.951Z,101112.84
2022-11-01T06:53:03.008Z,101113.36
2022-11-01T06:54:06.011Z,101114.05
2022-11-01T06:55:09.516Z,101109.33
2022-11-01T06:56:12.809Z,101105.15
2022-11-01T06:57:15.793Z,101105.15
2022-11-01T06:58:18.989Z,101107.70
2022-11-01T06:59:22.134Z,101111.94
2022-11-01T07:00:26.600Z,101116.16
2022-11-01T07:01:29.741Z,101112.45
2022-11-01T07:02:32.986Z,101101.52
2022-11-01T07:03:36.567Z,101110.12
2022-11-01T07:04:39.647Z,101101.72
2022-11-01T07:05:42.826Z,101102.23
2022-11-01T07:06:45.822Z,101104.59
2022-11-01T07:07:48.685Z,101108.84
2022-11-01T07:08:51.665Z,101106.84
2022-11-01T07:09:54.656Z,101103.95
2022-11-01T07:10:57.783Z,101101.11
2022-11-01T07:12:00.765Z,101109.91
2022-11-01T07:13:05.519Z,101102.47
2022-11-01T07:14:09.100Z,101104.16
2022-11-01T07:15:12.441Z,101104.02
2022-11-01T07:16:15.301Z,101109.27
2022-11-01T07:17:18.171Z,101113.62
2022-11-01T07:18:21.309Z,101107.22
2022-11-01T07:19:24.275Z,101115.47
2022-11-01T07:20:28.806Z,101115.47
2022-11-01T07:21:31.800Z,101116.33
2022-11-01T07:22:34.623Z,101118.02
2022-11-01T07:23:37.741Z,101122.42
2022-11-01T07:24:40.529Z,101111.47
2022-11-01T07:25:44.062Z,101118.72
2022-11-01T07:26:47.196Z,101112.31
2022-11-01T07:27:50.380Z,101110.47
2022-11-01T07:28:53.464Z,101100.48
2022-11-01T07:29:56.420Z,101102.03
2022-11-01T07:30:59.309Z,101112.67
2022-11-01T07:32:02.394Z,101108.97
2022-11-01T07:33:06.114Z,101101.69
2022-11-01T07:34:09.413Z,101105.08
2022-11-01T07:35:12.414Z,101103.23
2022-11-01T07:36:15.716Z,101098.68
2022-11-01T07:37:18.666Z,101102.89
2022-11-01T07:38:21.863Z,101102.89
2022-11-01T07:39:24.896Z,101107.29
2022-11-01T07:40:28.459Z,101103.59
2022-11-01T07:41:31.857Z,101106.98
2022-11-01T07:42:42.909Z,101106.64
2022-11-01T07:43:46.279Z,101112.58
2022-11-01T07:44:50.142Z,101111.39
2022-11-01T07:45:53.174Z,101104.98
2022-11-01T07:46:56.162Z,101112.94
2022-11-01T07:48:04.489Z,101103.80
2022-11-01T07:49:07.820Z,101104.48
2022-11-01T07:50:12.141Z,101109.55
2022-11-01T07:51:15.395Z,101109.23
2022-11-01T07:52:18.251Z,101113.45
2022-11-01T07:53:21.308Z,101114.14
2022-11-01T07:54:24.190Z,101109.43
2022-11-01T07:55:27.921Z,101111.13
2022-11-01T07:56:30.958Z,101115.34
2022-11-01T07:57:40.967Z,101113.48
2022-11-01T07:58:44.128Z,101111.63
2022-11-01T07:59:47.195Z,101109.78
2022-11-01T08:00:50.394Z,101106.23
2022-11-01T08:01:53.697Z,101106.07
2022-11-01T08:03:02.802Z,101106.07
2022-11-01T08:04:07.013Z,101107.73
2022-11-01T08:05:12.080Z,101099.62
2022-11-01T08:06:16.319Z,101108.43
2022-11-01T08:07:19.508Z,101104.87
2022-11-01T08:08:22.747Z,101102.02
2022-11-01T08:09:25.827Z,101098.31
2022-11-01T08:10:29.445Z,101101.67
2022-11-01T08:11:32.434Z,101099.81
2022-11-01T08:12:35.689Z,101094.10
2022-11-01T08:13:38.630Z,101113.67
2022-11-01T08:14:41.712Z,101095.45
2022-11-01T08:15:45.080Z,101096.14
2022-11-01T08:16:49.881Z,101107.45
2022-11-01T08:17:56.186Z,101099.00
2022-11-01T08:18:59.231Z,101109.49
2022-11-01T08:20:02.291Z,101114.55
2022-11-01T08:21:05.494Z,101109.99
2022-11-01T08:22:08.881Z,101106.28
2022-11-01T08:23:12.375Z,101111.53
2022-11-01T08:24:15.552Z,101110.52
2022-11-01T08:25:19.542Z,101106.78
2022-11-01T08:26:22.649Z,101112.88
2022-11-01T08:27:25.658Z,101112.72
2022-11-01T08:28:29.916Z,101110.67
2022-11-01T08:29:33.177Z,101105.11
2022-11-01T08:30:37.921Z,101105.80
2022-11-01T08:31:42.414Z,101090.23
2022-11-01T08:32:45.815Z,101102.74
2022-11-01T08:33:48.776Z,101111.86
2022-11-01T08:34:51.745Z,101106.45
2022-11-01T08:35:54.718Z,101108.31
2022-11-01T08:36:58.557Z,101104.79
2022-11-01T08:38:04.255Z,101104.59
2022-11-01T08:40:11.632Z,101110.85
2022-11-01T08:41:14.720Z,101104.59
2022-11-01T08:42:17.901Z,101104.79
2022-11-01T08:43:20.992Z,101112.05
2022-11-01T08:44:23.882Z,101100.20
2022-11-01T08:45:27.987Z,101116.27
2022-11-01T08:46:31.178Z,101099.88
2022-11-01T08:47:34.284Z,101107.83
2022-11-01T08:48:37.274Z,101106.63
2022-11-01T08:49:40.348Z,101102.76
2022-11-01T08:50:43.680Z,101105.11
2022-11-01T08:51:46.740Z,101106.30
2022-11-01T08:52:49.726Z,101109.69
2022-11-01T08:53:56.138Z,101108.48
2022-11-01T08:54:59.059Z,101096.34
2022-11-01T08:56:02.183Z,101102.40
2022-11-01T08:57:05.485Z,101100.38
2022-11-01T08:58:08.986Z,101095.66
2022-11-01T08:59:11.975Z,101099.86
2022-11-01T09:00:17.643Z,101098.00
2022-11-01T09:01:23.324Z,101097.16
2022-11-01T09:02:26.820Z,101092.59
2022-11-01T09:03:30.176Z,101085.48
2022-11-01T09:04:33.150Z,101090.73
2022-11-01T09:05:36.314Z,101088.88
2022-11-01T09:06:39.163Z,101089.53
2022-11-01T09:07:42.017Z,101091.39
2022-11-01T09:08:44.988Z,101086.66
2022-11-01T09:09:47.849Z,101083.80
2022-11-01T09:10:50.934Z,101090.05
2022-11-01T09:11:53.876Z,101099.02
2022-11-01T09:12:57.995Z,101090.91
2022-11-01T09:14:00.991Z,101093.61
2022-11-01T09:15:05.827Z,101099.88
2022-11-01T09:16:08.998Z,101096.12
2022-11-01T09:17:11.951Z,101086.14
2022-11-01T09:18:14.902Z,101078.72
2022-11-01T09:19:18.401Z,101080.41
2022-11-01T09:20:21.552Z,101075.00
2022-11-01T09:21:29.036Z,101084.81
2022-11-01T09:22:29.827Z,101082.92
2022-11-01T09:23:34.009Z,101087.19
2022-11-01T09:24:36.870Z,101075.36
2022-11-01T09:25:39.736Z,101078.71
2022-11-01T09:26:43.174Z,101077.70
2022-11-01T09:27:46.252Z,101079.23
2022-11-01T09:28:49.085Z,101073.66
2022-11-01T09:29:52.323Z,101074.31
2022-11-01T09:31:08.051Z,101076.00
2022-11-01T09:32:00.547Z,101081.25
2022-11-01T09:33:05.543Z,101080.05
2022-11-01T09:34:10.538Z,101082.59
2022-11-01T09:35:13.446Z,101084.28
2022-11-01T09:36:16.648Z,101082.22
2022-11-01T09:37:19.614Z,101075.63
2022-11-01T09:38:22.474Z,101079.02
2022-11-01T09:39:25.952Z,101083.23
2022-11-01T09:40:32.595Z,101077.65
2022-11-01T09:41:41.029Z,101077.65
2022-11-01T09:42:45.462Z,101073.92
2022-11-01T09:43:50.888Z,101082.90
2022-11-01T09:44:56.921Z,101081.04
2022-11-01T09:46:01.829Z,101079.14
2022-11-01T09:47:07.758Z,101075.62
2022-11-01T09:48:13.796Z,101082.70
2022-11-01T09:49:20.234Z,101078.33
2022-11-01T09:50:34.042Z,101078.33
2022-11-01T09:51:38.762Z,101082.90
2022-11-01T09:52:41.672Z,101077.65
2022-11-01T09:53:44.927Z,101077.48
2022-11-01T09:54:48.683Z,101083.75
2022-11-01T09:56:09.273Z,101081.04
2022-11-01T09:57:18.480Z,101083.75
2022-11-01T09:58:40.186Z,101082.90
2022-11-01T10:00:03.610Z,101089.98
2022-11-01T10:01:30.596Z,101088.97
2022-11-01T10:03:01.181Z,101082.70
2022-11-01T10:04:19.865Z,101078.33
2022-11-01T10:05:50.310Z,101088.11
2022-11-01T10:07:03.145Z,101087.27
2022-11-01T10:08:29.398Z,101081.04
2022-11-01T10:09:44.994Z,101080.19
2022-11-01T10:11:23.009Z,101081.86
2022-11-01T10:12:58.754Z,101078.33
2022-11-01T10:14:22.071Z,101083.55
2022-11-01T10:15:34.251Z,101094.37
2022-11-01T10:16:41.334Z,101088.97
2022-11-01T10:17:53.051Z,101089.81
2022-11-01T10:19:18.409Z,101092.52
2022-11-01T10:20:28.081Z,101088.80
2022-11-01T10:21:34.565Z,101090.66
2022-11-01T10:22:39.772Z,101091.50
2022-11-01T10:23:49.333Z,101090.49
2022-11-01T10:25:00.785Z,101101.13
2022-11-01T10:26:06.231Z,101094.53
2022-11-01T10:27:15.668Z,101091.66
2022-11-01T10:28:50.867Z,101088.75
2022-11-01T10:29:57.369Z,101085.72
2022-11-01T10:31:07.392Z,101090.28
2022-11-01T10:32:25.676Z,101105.35
2022-11-01T10:33:35.008Z,101092.46
2022-11-01T10:34:40.389Z,101092.46
2022-11-01T10:35:45.926Z,101102.28
2022-11-01T10:36:50.601Z,101099.21
2022-11-01T10:38:41.941Z,101099.21
2022-11-01T10:40:00.163Z,101101.92
2022-11-01T10:40:56.591Z,101099.05
2022-11-01T10:42:03.022Z,101112.42
2022-11-01T10:43:09.458Z,101108.02
2022-11-01T10:44:18.952Z,101105.30
2022-11-01T10:45:22.726Z,101100.91
2022-11-01T10:46:34.861Z,101104.45
2022-11-01T10:47:38.225Z,101103.45
2022-11-01T10:48:50.655Z,101101.58
2022-11-01T10:50:15.349Z,101106.84
2022-11-01T10:51:26.776Z,101101.42
2022-11-01T10:52:29.979Z,101099.55
2022-11-01T10:53:39.408Z,101104.13
2022-11-01T10:54:44.522Z,101105.14
2022-11-01T10:55:51.181Z,101108.86
2022-11-01T10:56:57.023Z,101110.72
2022-11-01T10:58:03.730Z,101106.32
2022-11-01T10:59:22.369Z,101100.25
2022-11-01T11:00:25.484Z,101099.57
2022-11-01T11:01:31.949Z,101104.99
2022-11-01T11:02:44.511Z,101096.70
2022-11-01T11:03:49.114Z,101111.09
2022-11-01T11:04:52.229Z,101111.09
2022-11-01T11:05:58.919Z,101102.96
2022-11-01T11:07:02.132Z,101103.12
2022-11-01T11:08:08.698Z,101108.55
2022-11-01T11:09:17.096Z,101102.12
2022-11-01T11:10:26.767Z,101110.23
2022-11-01T11:11:35.812Z,101100.25
2022-11-01T11:12:40.688Z,101103.81
2022-11-01T11:13:47.263Z,101108.38
2022-11-01T11:14:59.574Z,101115.66
2022-11-01T11:16:05.041Z,101103.30
2022-11-01T11:17:20.467Z,101118.70
2022-11-01T11:18:37.080Z,101108.88
2022-11-01T11:19:41.967Z,101107.22
2022-11-01T11:20:48.489Z,101106.37
2022-11-01T11:21:53.423Z,101114.30
2022-11-01T11:22:58.522Z,101101.60
2022-11-01T11:24:02.756Z,101110.41
2022-11-01T11:25:08.485Z,101111.09
2022-11-01T11:26:16.202Z,101112.75
2022-11-01T11:27:24.663Z,101109.88
2022-11-01T11:28:31.199Z,101115.30
2022-11-01T11:29:40.616Z,101111.73
2022-11-01T11:30:43.696Z,101113.59
2022-11-01T11:31:51.224Z,101107.33
2022-11-01T11:32:55.199Z,101115.66
2022-11-01T11:34:22.227Z,101108.71
2022-11-01T11:35:27.802Z,101107.02
2022-11-01T11:36:41.962Z,101105.35
2022-11-01T11:37:57.667Z,101102.64
2022-11-01T11:39:02.259Z,101097.39
2022-11-01T11:40:24.281Z,101101.97
2022-11-01T11:41:30.679Z,101103.83
2022-11-01T11:42:33.638Z,101100.27
2022-11-01T11:43:38.366Z,101101.28
2022-11-01T11:44:44.924Z,101101.28
2022-11-01T11:46:17.301Z,101107.71
2022-11-01T11:47:28.952Z,101107.71
2022-11-01T11:48:32.429Z,101102.30
2022-11-01T11:49:36.932Z,101115.84
2022-11-01T11:50:40.721Z,101114.82
2022-11-01T11:51:45.783Z,101113.97
2022-11-01T11:52:52.174Z,101122.95
2022-11-01T11:54:10.760Z,101116.88
2022-11-01T11:55:29.046Z,101118.73
2022-11-01T11:56:31.978Z,101115.19
2022-11-01T11:57:34.916Z,101125.17
2022-11-01T11:58:43.924Z,101117.05
2022-11-01T11:59:52.951Z,101124.32
2022-11-01T12:01:05.368Z,101118.91
2022-11-01T12:02:15.850Z,101124.32
2022-11-01T12:03:20.269Z,101112.80
2022-11-01T12:04:24.384Z,101112.80
2022-11-01T12:05:28.283Z,101117.21
2022-11-01T12:06:31.754Z,101113.48
2022-11-01T12:07:37.463Z,101118.73
2022-11-01T12:08:46.721Z,101110.61
2022-11-01T12:09:49.681Z,101116.88
2022-11-01T12:10:58.156Z,101115.19
2022-11-01T12:12:34.676Z,101119.75
2022-11-01T12:13:41.222Z,101118.91
2022-11-01T12:14:44.193Z,101118.91
2022-11-01T12:15:47.201Z,101124.48
2022-11-01T12:16:50.278Z,101122.79
2022-11-01T12:17:53.553Z,101122.63
2022-11-01T12:19:00.103Z,101124.32
2022-11-01T12:20:09.654Z,101129.73
2022-11-01T12:21:22.148Z,101126.02
2022-11-01T12:22:28.138Z,101132.45
2022-11-01T12:23:39.711Z,101124.32
2022-11-01T12:24:51.305Z,101131.43
2022-11-01T12:25:57.049Z,101133.13
2022-11-01T12:27:03.824Z,101128.56
2022-11-01T12:28:25.373Z,101133.78
2022-11-01T12:29:37.482Z,101129.20
2022-11-01T12:30:43.046Z,101126.50
2022-11-01T12:31:47.879Z,101130.06
2022-11-01T12:32:53.900Z,101134.63
2022-11-01T12:34:06.101Z,101127.34
2022-11-01T12:35:13.249Z,101130.73
2022-11-01T12:36:19.994Z,101128.03
2022-11-01T12:37:44.580Z,101136.16
2022-11-01T12:38:57.136Z,101140.56
2022-11-01T12:40:06.462Z,101136.81